createdAt,value
2016-02-14T00:00:50.588Z,0
2016-02-14T00:01:50.638Z,0
2016-02-14T00:02:50.625Z,0
2016-02-14T00:03:50.643Z,0
2016-02-14T00:04:50.662Z,0
2016-02-14T00:05:50.727Z,0
2016-02-14T00:06:50.682Z,0
2016-02-14T00:07:50.717Z,0
2016-02-14T00:08:50.720Z,0
2016-02-14T00:09:50.738Z,0
2016-02-14T00:10:50.788Z,0
2016-02-14T00:11:50.790Z,0
2016-02-14T00:12:50.808Z,0
2016-02-14T00:13:50.812Z,0
2016-02-14T00:14:50.829Z,0
2016-02-14T00:15:50.863Z,0
2016-02-14T00:16:50.867Z,0
2016-02-14T00:17:50.884Z,0
2016-02-14T00:18:50.903Z,0
2016-02-14T00:19:50.920Z,0
2016-02-14T00:20:50.923Z,0
2016-02-14T00:21:50.942Z,0
2016-02-14T00:22:50.961Z,0
2016-02-14T00:23:50.978Z,0
2016-02-14T00:24:51.012Z,0
2016-02-14T00:25:51.031Z,0
2016-02-14T00:26:51.033Z,0
2016-02-14T00:27:51.052Z,0
2016-02-14T00:28:51.070Z,0
2016-02-14T00:29:51.088Z,0
2016-02-14T00:30:50.940Z,0
2016-02-14T00:31:51.148Z,0
2016-02-14T00:32:51.134Z,0
2016-02-14T00:33:51.153Z,0
2016-02-14T00:34:51.171Z,0
2016-02-14T00:35:51.194Z,0
2016-02-14T00:36:51.213Z,0
2016-02-14T00:37:51.216Z,0
2016-02-14T00:38:51.233Z,0
2016-02-14T00:39:51.253Z,0
2016-02-14T00:40:51.286Z,0
2016-02-14T00:41:51.304Z,0
2016-02-14T00:42:51.308Z,0
2016-02-14T00:43:51.325Z,0
2016-02-14T00:44:51.327Z,0
2016-02-14T00:45:51.362Z,0
2016-02-14T00:46:51.224Z,0
2016-02-14T00:47:51.382Z,0
2016-02-14T00:48:51.386Z,0
2016-02-14T00:49:51.435Z,0
2016-02-14T00:50:51.438Z,0
2016-02-14T00:51:51.457Z,0
2016-02-14T00:52:51.459Z,0
2016-02-14T00:53:51.476Z,0
2016-02-14T00:54:51.512Z,0
2016-02-14T00:55:51.529Z,0
2016-02-14T00:56:51.532Z,0
2016-02-14T00:57:51.551Z,0
2016-02-14T00:58:51.568Z,0
2016-02-14T00:59:51.587Z,0
2016-02-14T01:00:51.606Z,0
2016-02-14T01:01:51.639Z,0
2016-02-14T01:02:51.642Z,0
2016-02-14T01:03:51.661Z,0
2016-02-14T01:04:51.709Z,0
2016-02-14T01:05:51.697Z,0
2016-02-14T01:06:51.700Z,0
2016-02-14T01:07:51.718Z,0
2016-02-14T01:08:51.752Z,0
2016-02-14T01:09:51.755Z,0
2016-02-14T01:10:51.772Z,0
2016-02-14T01:11:51.775Z,0
2016-02-14T01:12:51.810Z,0
2016-02-14T01:13:51.827Z,0
2016-02-14T01:14:51.847Z,0
2016-02-14T01:15:51.849Z,0
2016-02-14T01:16:51.867Z,0
2016-02-14T01:17:51.885Z,0
2016-02-14T01:18:51.904Z,0
2016-02-14T01:19:51.922Z,0
2016-02-14T01:20:51.956Z,0
2016-02-14T01:21:51.974Z,0
2016-02-14T01:22:51.962Z,0
2016-02-14T01:23:51.980Z,0
2016-02-14T01:24:51.999Z,0
2016-02-14T01:25:52.016Z,0
2016-02-14T01:26:52.034Z,0
2016-02-14T01:27:52.038Z,0
2016-02-14T01:28:52.040Z,0
2016-02-14T01:29:52.042Z,0
2016-02-14T01:30:52.092Z,0
2016-02-14T01:31:52.111Z,0
2016-02-14T01:32:52.128Z,0
2016-02-14T01:33:52.148Z,0
2016-02-14T01:34:52.165Z,0
2016-02-14T01:35:52.167Z,0
2016-02-14T01:36:52.187Z,0
2016-02-14T01:37:52.205Z,0
2016-02-14T01:38:52.238Z,0
2016-02-14T01:39:52.242Z,0
2016-02-14T01:40:52.244Z,0
2016-02-14T01:41:52.263Z,0
2016-02-14T01:42:52.281Z,0
2016-02-14T01:43:52.299Z,0
2016-02-14T01:44:52.333Z,0
2016-02-14T01:45:52.336Z,0
2016-02-14T01:46:52.354Z,0
2016-02-14T01:47:52.388Z,0
2016-02-14T01:48:52.390Z,0
2016-02-14T01:49:52.393Z,0
2016-02-14T01:50:52.427Z,0
2016-02-14T01:51:52.289Z,0
2016-02-14T01:52:52.463Z,0
2016-02-14T01:53:52.466Z,0
2016-02-14T01:54:52.484Z,0
2016-02-14T01:55:52.503Z,0
2016-02-14T01:56:52.537Z,0
2016-02-14T01:57:52.540Z,0
2016-02-14T01:58:52.543Z,0
2016-02-14T01:59:52.562Z,0
2016-02-14T02:00:52.579Z,0
2016-02-14T02:01:52.613Z,0
2016-02-14T02:02:52.615Z,0
2016-02-14T02:03:52.634Z,0
2016-02-14T02:04:52.653Z,0
2016-02-14T02:05:52.670Z,0
2016-02-14T02:06:52.689Z,0
2016-02-14T02:07:52.692Z,0
2016-02-14T02:08:52.726Z,0
2016-02-14T02:09:52.744Z,0
2016-02-14T02:10:52.762Z,0
2016-02-14T02:11:52.764Z,0
2016-02-14T02:12:52.784Z,0
2016-02-14T02:13:52.802Z,0
2016-02-14T02:14:52.819Z,0
2016-02-14T02:15:52.869Z,0
2016-02-14T02:16:52.841Z,0
2016-02-14T02:17:52.891Z,0
2016-02-14T02:18:52.878Z,0
2016-02-14T02:19:52.896Z,0
2016-02-14T02:20:52.913Z,0
2016-02-14T02:21:52.949Z,0
2016-02-14T02:22:52.951Z,0
2016-02-14T02:23:52.968Z,0
2016-02-14T02:24:52.988Z,0
2016-02-14T02:25:52.990Z,0
2016-02-14T02:26:53.024Z,0
2016-02-14T02:27:53.043Z,0
2016-02-14T02:28:53.060Z,0
2016-02-14T02:29:53.048Z,0
2016-02-14T02:30:53.223Z,0
2016-02-14T02:31:53.100Z,0
2016-02-14T02:32:52.962Z,0
2016-02-14T02:33:53.137Z,0
2016-02-14T02:34:53.139Z,0
2016-02-14T02:35:53.173Z,0
2016-02-14T02:36:53.192Z,0
2016-02-14T02:37:53.209Z,0
2016-02-14T02:38:53.212Z,0
2016-02-14T02:39:53.215Z,0
2016-02-14T02:40:53.264Z,0
2016-02-14T02:41:53.408Z,0
2016-02-14T02:42:53.286Z,0
2016-02-14T02:43:53.288Z,0
2016-02-14T02:44:53.307Z,0
2016-02-14T02:45:53.341Z,0
2016-02-14T02:46:53.359Z,0
2016-02-14T02:47:53.377Z,0
2016-02-14T02:48:53.396Z,0
2016-02-14T02:49:53.399Z,0
2016-02-14T02:50:53.416Z,0
2016-02-14T02:51:53.435Z,0
2016-02-14T02:52:53.454Z,0
2016-02-14T02:53:53.472Z,0
2016-02-14T02:54:53.475Z,0
2016-02-14T02:55:53.493Z,0
2016-02-14T02:56:53.510Z,0
2016-02-14T02:57:53.530Z,0
2016-02-14T02:58:53.532Z,0
2016-02-14T02:59:53.550Z,0
2016-02-14T03:00:53.584Z,0
2016-02-14T03:01:53.587Z,0
2016-02-14T03:02:53.605Z,0
2016-02-14T03:03:53.624Z,0
2016-02-14T03:04:53.657Z,0
2016-02-14T03:05:53.675Z,0
2016-02-14T03:06:53.695Z,0
2016-02-14T03:07:53.697Z,0
2016-02-14T03:08:53.714Z,0
2016-02-14T03:09:53.734Z,0
2016-02-14T03:10:53.783Z,0
2016-02-14T03:11:53.770Z,0
2016-02-14T03:12:53.773Z,0
2016-02-14T03:13:53.791Z,0
2016-02-14T03:14:53.809Z,0
2016-02-14T03:15:53.844Z,0
2016-02-14T03:16:53.862Z,0
2016-02-14T03:17:53.896Z,0
2016-02-14T03:18:53.898Z,0
2016-02-14T03:19:53.902Z,0
2016-02-14T03:20:53.904Z,0
2016-02-14T03:21:53.922Z,0
2016-02-14T03:22:53.955Z,0
2016-02-14T03:23:53.958Z,0
2016-02-14T03:24:53.993Z,0
2016-02-14T03:25:53.995Z,0
2016-02-14T03:26:53.857Z,0
2016-02-14T03:27:54.016Z,0
2016-02-14T03:28:54.035Z,0
2016-02-14T03:29:54.068Z,0
2016-02-14T03:30:54.071Z,0
2016-02-14T03:31:54.090Z,0
2016-02-14T03:32:54.107Z,0
2016-02-14T03:33:54.110Z,0
2016-02-14T03:34:54.129Z,0
2016-02-14T03:35:54.162Z,0
2016-02-14T03:36:54.181Z,0
2016-02-14T03:37:54.184Z,0
2016-02-14T03:38:54.202Z,0
2016-02-14T03:39:54.221Z,0
2016-02-14T03:40:54.239Z,0
2016-02-14T03:41:54.256Z,0
2016-02-14T03:42:54.275Z,0
2016-02-14T03:43:54.278Z,0
2016-02-14T03:44:54.296Z,0
2016-02-14T03:45:54.330Z,0
2016-02-14T03:46:54.349Z,0
2016-02-14T03:47:54.351Z,0
2016-02-14T03:48:54.370Z,0
2016-02-14T03:49:54.247Z,0
2016-02-14T03:50:54.421Z,0
2016-02-14T03:51:54.441Z,0
2016-02-14T03:52:54.427Z,0
2016-02-14T03:53:54.446Z,0
2016-02-14T03:54:54.463Z,0
2016-02-14T03:55:54.482Z,0
2016-02-14T03:56:54.501Z,0
2016-02-14T03:57:54.504Z,0
2016-02-14T03:58:54.537Z,0
2016-02-14T03:59:54.555Z,0
2016-02-14T04:00:54.557Z,0
2016-02-14T04:01:54.577Z,0
2016-02-14T04:02:54.595Z,0
2016-02-14T04:03:54.628Z,0
2016-02-14T04:04:54.632Z,0
2016-02-14T04:05:54.634Z,0
2016-02-14T04:06:54.684Z,0
2016-02-14T04:07:54.686Z,0
2016-02-14T04:08:54.689Z,0
2016-02-14T04:09:54.706Z,0
2016-02-14T04:10:54.742Z,0
2016-02-14T04:11:54.744Z,0
2016-02-14T04:12:54.761Z,0
2016-02-14T04:13:54.765Z,0
2016-02-14T04:14:54.783Z,0
2016-02-14T04:15:54.817Z,0
2016-02-14T04:16:54.680Z,0
2016-02-14T04:17:54.853Z,0
2016-02-14T04:18:54.872Z,0
2016-02-14T04:19:54.891Z,0
2016-02-14T04:20:54.893Z,0
2016-02-14T04:21:54.911Z,0
2016-02-14T04:22:54.914Z,0
2016-02-14T04:23:54.948Z,0
2016-02-14T04:24:54.966Z,0
2016-02-14T04:25:54.969Z,0
2016-02-14T04:26:54.988Z,0
2016-02-14T04:27:55.302Z,0
2016-02-14T04:28:55.024Z,0
2016-02-14T04:29:55.057Z,0
2016-02-14T04:30:55.060Z,0
2016-02-14T04:31:55.062Z,0
2016-02-14T04:32:55.097Z,0
2016-02-14T04:33:55.100Z,0
2016-02-14T04:34:55.103Z,0
2016-02-14T04:35:55.137Z,0
2016-02-14T04:36:55.170Z,0
2016-02-14T04:37:55.173Z,0
2016-02-14T04:38:55.176Z,0
2016-02-14T04:39:55.194Z,0
2016-02-14T04:40:55.212Z,0
2016-02-14T04:41:55.247Z,0
2016-02-14T04:42:55.268Z,0
2016-02-14T04:43:55.288Z,0
2016-02-14T04:44:55.274Z,0
2016-02-14T04:45:55.293Z,0
2016-02-14T04:46:55.310Z,0
2016-02-14T04:47:55.329Z,0
2016-02-14T04:48:55.347Z,0
2016-02-14T04:49:55.366Z,0
2016-02-14T04:50:55.368Z,0
2016-02-14T04:51:55.417Z,0
2016-02-14T04:52:55.404Z,0
2016-02-14T04:53:55.423Z,0
2016-02-14T04:54:55.457Z,0
2016-02-14T04:55:55.475Z,0
2016-02-14T04:56:55.462Z,0
2016-02-14T04:57:55.481Z,0
2016-02-14T04:58:55.515Z,0
2016-02-14T04:59:55.533Z,0
2016-02-14T05:00:55.536Z,0
2016-02-14T05:01:55.553Z,0
2016-02-14T05:02:55.573Z,0
2016-02-14T05:03:55.591Z,0
2016-02-14T05:04:55.593Z,0
2016-02-14T05:05:55.611Z,0
2016-02-14T05:06:55.646Z,0
2016-02-14T05:07:55.664Z,0
2016-02-14T05:08:55.667Z,0
2016-02-14T05:09:55.685Z,0
2016-02-14T05:10:55.718Z,0
2016-02-14T05:11:55.722Z,0
2016-02-14T05:12:55.741Z,0
2016-02-14T05:13:55.743Z,0
2016-02-14T05:14:55.762Z,0
2016-02-14T05:15:55.796Z,0
2016-02-14T05:16:55.814Z,0
2016-02-14T05:17:55.817Z,0
2016-02-14T05:18:55.835Z,0
2016-02-14T05:19:55.838Z,0
2016-02-14T05:20:55.888Z,0
2016-02-14T05:21:55.874Z,0
2016-02-14T05:22:55.893Z,0
2016-02-14T05:23:55.910Z,0
2016-02-14T05:24:55.930Z,0
2016-02-14T05:25:55.948Z,0
2016-02-14T05:26:55.951Z,0
2016-02-14T05:27:55.969Z,0
2016-02-14T05:28:56.002Z,0
2016-02-14T05:29:56.021Z,0
2016-02-14T05:30:56.040Z,0
2016-02-14T05:31:56.057Z,0
2016-02-14T05:32:56.059Z,0
2016-02-14T05:33:56.095Z,0
2016-02-14T05:34:56.112Z,0
2016-02-14T05:35:56.146Z,0
2016-02-14T05:36:56.118Z,0
2016-02-14T05:37:56.167Z,0
2016-02-14T05:38:56.170Z,0
2016-02-14T05:39:56.173Z,0
2016-02-14T05:40:56.191Z,0
2016-02-14T05:41:56.209Z,0
2016-02-14T05:42:56.243Z,0
2016-02-14T05:43:56.246Z,0
2016-02-14T05:44:56.250Z,0
2016-02-14T05:45:56.267Z,0
2016-02-14T05:46:56.286Z,0
2016-02-14T05:47:56.319Z,0
2016-02-14T05:48:56.322Z,0
2016-02-14T05:49:56.325Z,0
2016-02-14T05:50:56.358Z,0
2016-02-14T05:51:56.377Z,0
2016-02-14T05:52:56.396Z,0
2016-02-14T05:53:56.258Z,0
2016-02-14T05:54:56.417Z,0
2016-02-14T05:55:56.279Z,0
2016-02-14T05:56:56.437Z,0
2016-02-14T05:57:56.471Z,0
2016-02-14T05:58:56.490Z,0
2016-02-14T05:59:56.507Z,0
2016-02-14T06:00:56.510Z,0
2016-02-14T06:01:56.545Z,0
2016-02-14T06:02:56.547Z,0
2016-02-14T06:03:56.566Z,0
2016-02-14T06:04:56.620Z,0
2016-02-14T06:05:56.592Z,0
2016-02-14T06:06:56.609Z,0
2016-02-14T06:07:56.628Z,0
2016-02-14T06:08:56.647Z,0
2016-02-14T06:09:56.680Z,0
2016-02-14T06:10:56.699Z,0
2016-02-14T06:11:56.701Z,0
2016-02-14T06:12:56.703Z,0
2016-02-14T06:13:56.722Z,0
2016-02-14T06:14:56.725Z,0
2016-02-14T06:15:56.758Z,0
2016-02-14T06:16:56.777Z,0
2016-02-14T06:17:56.796Z,0
2016-02-14T06:18:56.813Z,0
2016-02-14T06:19:56.833Z,0
2016-02-14T06:20:56.835Z,0
2016-02-14T06:21:56.868Z,0
2016-02-14T06:22:56.871Z,0
2016-02-14T06:23:56.874Z,0
2016-02-14T06:24:56.892Z,0
2016-02-14T06:25:56.910Z,0
2016-02-14T06:26:56.945Z,0
2016-02-14T06:27:56.963Z,0
2016-02-14T06:28:56.966Z,0
2016-02-14T06:29:56.984Z,0
2016-02-14T06:30:57.002Z,0
2016-02-14T06:31:57.224Z,0
2016-02-14T06:32:57.023Z,0
2016-02-14T06:33:57.057Z,0
2016-02-14T06:34:57.075Z,0
2016-02-14T06:35:57.110Z,0
2016-02-14T06:36:57.097Z,0
2016-02-14T06:37:57.115Z,0
2016-02-14T06:38:57.133Z,0
2016-02-14T06:39:57.151Z,0
2016-02-14T06:40:57.169Z,0
2016-02-14T06:41:57.189Z,0
2016-02-14T06:42:57.191Z,0
2016-02-14T06:43:57.052Z,0
2016-02-14T06:44:57.228Z,0
2016-02-14T06:45:57.261Z,0
2016-02-14T06:46:57.264Z,0
2016-02-14T06:47:57.267Z,0
2016-02-14T06:48:57.317Z,0
2016-02-14T06:49:57.428Z,0
2016-02-14T06:50:57.322Z,0
2016-02-14T06:51:57.355Z,0
2016-02-14T06:52:57.374Z,0
2016-02-14T06:53:57.377Z,0
2016-02-14T06:54:57.379Z,0
2016-02-14T06:55:57.398Z,0
2016-02-14T06:56:57.432Z,0
2016-02-14T06:57:57.435Z,0
2016-02-14T06:58:57.452Z,0
2016-02-14T06:59:57.487Z,0
2016-02-14T07:00:57.494Z,0
2016-02-14T07:01:57.486Z,0
2016-02-14T07:02:57.496Z,0
2016-02-14T07:03:57.504Z,0
2016-02-14T07:04:57.513Z,0
2016-02-14T07:05:57.512Z,0
2016-02-14T07:06:57.526Z,0
2016-02-14T07:07:57.541Z,0
2016-02-14T07:08:57.556Z,0
2016-02-14T07:09:57.571Z,0
2016-02-14T07:10:57.573Z,0
2016-02-14T07:11:57.590Z,0
2016-02-14T07:12:57.607Z,0
2016-02-14T07:13:57.639Z,0
2016-02-14T07:14:57.658Z,0
2016-02-14T07:15:57.660Z,0
2016-02-14T07:16:57.676Z,0
2016-02-14T07:17:57.711Z,0
2016-02-14T07:18:57.728Z,0
2016-02-14T07:19:57.716Z,0
2016-02-14T07:20:57.733Z,0
2016-02-14T07:21:57.768Z,0
2016-02-14T07:22:57.815Z,0
2016-02-14T07:23:57.787Z,0
2016-02-14T07:24:57.789Z,0
2016-02-14T07:25:57.808Z,0
2016-02-14T07:26:57.842Z,0
2016-02-14T07:27:57.845Z,0
2016-02-14T07:28:57.863Z,0
2016-02-14T07:29:57.943Z,0
2016-02-14T07:30:57.900Z,0
2016-02-14T07:31:57.918Z,5
2016-02-14T07:32:57.952Z,5
2016-02-14T07:33:57.955Z,5
2016-02-14T07:34:57.988Z,5
2016-02-14T07:35:58.007Z,5
2016-02-14T07:36:58.010Z,5
2016-02-14T07:37:57.855Z,5
2016-02-14T07:38:58.029Z,5
2016-02-14T07:39:58.065Z,5
2016-02-14T07:40:58.067Z,5
2016-02-14T07:41:58.101Z,0
2016-02-14T07:42:58.104Z,0
2016-02-14T07:43:58.121Z,0
2016-02-14T07:44:58.140Z,0
2016-02-14T07:45:58.159Z,0
2016-02-14T07:46:58.161Z,0
2016-02-14T07:47:58.179Z,0
2016-02-14T07:48:58.198Z,0
2016-02-14T07:49:58.200Z,0
2016-02-14T07:50:58.235Z,0
2016-02-14T07:51:58.253Z,0
2016-02-14T07:52:58.271Z,5
2016-02-14T07:53:58.273Z,5
2016-02-14T07:54:58.276Z,5
2016-02-14T07:55:58.311Z,5
2016-02-14T07:56:58.328Z,5
2016-02-14T07:57:58.363Z,5
2016-02-14T07:58:58.365Z,5
2016-02-14T07:59:58.384Z,5
2016-02-14T08:00:58.386Z,5
2016-02-14T08:01:58.405Z,5
2016-02-14T08:02:58.438Z,5
2016-02-14T08:03:58.504Z,5
2016-02-14T08:04:58.460Z,5
2016-02-14T08:05:58.477Z,5
2016-02-14T08:06:58.496Z,5
2016-02-14T08:07:58.515Z,5
2016-02-14T08:08:58.377Z,5
2016-02-14T08:09:58.535Z,5
2016-02-14T08:10:58.554Z,5
2016-02-14T08:11:58.587Z,5
2016-02-14T08:12:58.607Z,5
2016-02-14T08:13:58.609Z,5
2016-02-14T08:14:58.626Z,5
2016-02-14T08:15:58.490Z,10
2016-02-14T08:16:58.679Z,10
2016-02-14T08:17:58.682Z,15
2016-02-14T08:18:58.732Z,15
2016-02-14T08:19:58.703Z,15
2016-02-14T08:20:58.565Z,15
2016-02-14T08:21:58.756Z,20
2016-02-14T08:22:58.759Z,15
2016-02-14T08:23:58.619Z,20
2016-02-14T08:24:58.778Z,20
2016-02-14T08:25:58.797Z,20
2016-02-14T08:26:58.831Z,20
2016-02-14T08:27:58.850Z,15
2016-02-14T08:28:58.852Z,10
2016-02-14T08:29:58.870Z,10
2016-02-14T08:30:58.889Z,10
2016-02-14T08:31:58.922Z,10
2016-02-14T08:32:58.925Z,10
2016-02-14T08:33:58.944Z,10
2016-02-14T08:34:58.993Z,10
2016-02-14T08:35:58.966Z,10
2016-02-14T08:36:58.983Z,10
2016-02-14T08:37:59.016Z,10
2016-02-14T08:38:59.019Z,15
2016-02-14T08:39:59.069Z,10
2016-02-14T08:40:59.057Z,10
2016-02-14T08:41:59.106Z,10
2016-02-14T08:42:59.093Z,10
2016-02-14T08:43:59.111Z,15
2016-02-14T08:44:59.130Z,15
2016-02-14T08:45:59.148Z,10
2016-02-14T08:46:59.181Z,10
2016-02-14T08:47:59.200Z,15
2016-02-14T08:48:59.203Z,15
2016-02-14T08:49:59.206Z,15
2016-02-14T08:50:59.302Z,15
2016-02-14T08:51:59.258Z,15
2016-02-14T08:52:59.261Z,15
2016-02-14T08:53:59.295Z,15
2016-02-14T08:54:59.297Z,15
2016-02-14T08:55:59.315Z,15
2016-02-14T08:56:59.412Z,15
2016-02-14T08:57:59.352Z,15
2016-02-14T08:58:59.370Z,20
2016-02-14T08:59:59.388Z,25
2016-02-14T09:00:59.392Z,25
2016-02-14T09:01:59.410Z,25
2016-02-14T09:02:59.444Z,20
2016-02-14T09:03:59.447Z,20
2016-02-14T09:04:59.464Z,20
2016-02-14T09:05:59.514Z,20
2016-02-14T09:06:59.501Z,20
2016-02-14T09:07:59.519Z,15
2016-02-14T09:08:59.569Z,15
2016-02-14T09:09:59.556Z,10
2016-02-14T09:10:59.591Z,10
2016-02-14T09:11:59.577Z,10
2016-02-14T09:12:59.643Z,15
2016-02-14T09:13:59.613Z,15
2016-02-14T09:14:59.632Z,15
2016-02-14T09:15:59.651Z,20
2016-02-14T09:16:59.668Z,20
2016-02-14T09:17:59.703Z,20
2016-02-14T09:18:59.690Z,20
2016-02-14T09:19:59.724Z,20
2016-02-14T09:20:59.742Z,20
2016-02-14T09:21:59.776Z,20
2016-02-14T09:22:59.763Z,15
2016-02-14T09:23:59.812Z,15
2016-02-14T09:24:59.799Z,15
2016-02-14T09:25:59.865Z,15
2016-02-14T09:26:59.836Z,10
2016-02-14T09:27:59.901Z,10
2016-02-14T09:28:59.873Z,15
2016-02-14T09:29:59.922Z,15
2016-02-14T09:30:59.909Z,15
2016-02-14T09:31:59.959Z,15
2016-02-14T09:32:59.946Z,15
2016-02-14T09:33:59.996Z,15
2016-02-14T09:34:59.983Z,15
2016-02-14T09:36:00.001Z,15
2016-02-14T09:37:00.005Z,20
2016-02-14T09:38:00.069Z,20
2016-02-14T09:39:00.040Z,20
2016-02-14T09:40:00.106Z,20
2016-02-14T09:41:00.077Z,20
2016-02-14T09:42:00.110Z,15
2016-02-14T09:43:00.129Z,20
2016-02-14T09:43:59.398Z,20
2016-02-14T09:45:00.182Z,25
2016-02-14T09:46:00.199Z,25
2016-02-14T09:47:00.202Z,20
2016-02-14T09:48:00.237Z,20
2016-02-14T09:49:00.239Z,15
2016-02-14T09:50:00.242Z,15
2016-02-14T09:51:00.259Z,15
2016-02-14T09:52:00.295Z,15
2016-02-14T09:53:00.297Z,20
2016-02-14T09:54:00.331Z,20
2016-02-14T09:55:00.334Z,15
2016-02-14T09:56:00.367Z,15
2016-02-14T09:57:00.370Z,15
2016-02-14T09:58:00.404Z,15
2016-02-14T09:59:00.406Z,10
2016-02-14T10:00:03.456Z,15
2016-02-14T10:01:00.459Z,15
2016-02-14T10:02:00.462Z,15
2016-02-14T10:03:00.495Z,15
2016-02-14T10:04:00.497Z,15
2016-02-14T10:05:00.548Z,15
2016-02-14T10:06:00.519Z,15
2016-02-14T10:07:00.552Z,20
2016-02-14T10:08:00.572Z,20
2016-02-14T10:09:00.574Z,25
2016-02-14T10:10:00.624Z,25
2016-02-14T10:11:00.627Z,25
2016-02-14T10:12:00.644Z,25
2016-02-14T10:13:00.663Z,25
2016-02-14T10:14:00.682Z,25
2016-02-14T10:15:00.715Z,20
2016-02-14T10:16:00.702Z,20
2016-02-14T10:17:00.752Z,15
2016-02-14T10:18:00.740Z,15
2016-02-14T10:19:00.773Z,15
2016-02-14T10:20:00.837Z,20
2016-02-14T10:21:00.794Z,20
2016-02-14T10:22:00.828Z,20
2016-02-14T10:23:00.861Z,20
2016-02-14T10:24:00.865Z,20
2016-02-14T10:25:00.898Z,15
2016-02-14T10:26:00.901Z,15
2016-02-14T10:27:00.904Z,15
2016-02-14T10:28:00.953Z,15
2016-02-14T10:29:00.940Z,15
2016-02-14T10:30:00.818Z,15
2016-02-14T10:31:00.992Z,15
2016-02-14T10:32:01.027Z,20
2016-02-14T10:33:01.014Z,20
2016-02-14T10:34:01.033Z,20
2016-02-14T10:35:01.050Z,20
2016-02-14T10:36:01.099Z,20
2016-02-14T10:37:01.106Z,20
2016-02-14T10:38:01.124Z,15
2016-02-14T10:39:01.127Z,15
2016-02-14T10:40:01.161Z,15
2016-02-14T10:41:01.163Z,15
2016-02-14T10:42:01.181Z,15
2016-02-14T10:43:01.216Z,15
2016-02-14T10:44:01.077Z,15
2016-02-14T10:45:01.252Z,20
2016-02-14T10:46:01.286Z,15
2016-02-14T10:47:01.288Z,15
2016-02-14T10:48:01.292Z,15
2016-02-14T10:49:01.325Z,20
2016-02-14T10:50:01.359Z,20
2016-02-14T10:51:01.346Z,20
2016-02-14T10:52:01.411Z,20
2016-02-14T10:53:01.398Z,20
2016-02-14T10:54:01.417Z,20
2016-02-14T10:55:01.435Z,20
2016-02-14T10:56:01.438Z,20
2016-02-14T10:57:01.487Z,20
2016-02-14T10:58:01.474Z,25
2016-02-14T10:59:01.524Z,20
2016-02-14T11:00:01.526Z,20
2016-02-14T11:01:01.576Z,20
2016-02-14T11:02:01.548Z,15
2016-02-14T11:03:01.598Z,15
2016-02-14T11:04:01.584Z,20
2016-02-14T11:05:01.634Z,25
2016-02-14T11:06:01.621Z,35
2016-02-14T11:07:01.670Z,40
2016-02-14T11:08:01.688Z,35
2016-02-14T11:09:01.536Z,35
2016-02-14T11:10:01.725Z,30
2016-02-14T11:11:01.728Z,30
2016-02-14T11:12:01.762Z,25
2016-02-14T11:13:01.780Z,25
2016-02-14T11:14:01.830Z,30
2016-02-14T11:15:01.817Z,25
2016-02-14T11:16:01.819Z,25
2016-02-14T11:17:01.854Z,25
2016-02-14T11:18:01.857Z,30
2016-02-14T11:19:01.891Z,30
2016-02-14T11:20:01.924Z,35
2016-02-14T11:21:01.927Z,35
2016-02-14T11:22:01.961Z,35
2016-02-14T11:23:01.948Z,35
2016-02-14T11:24:01.982Z,35
2016-02-14T11:25:02.000Z,35
2016-02-14T11:26:02.035Z,35
2016-02-14T11:27:02.037Z,35
2016-02-14T11:28:02.070Z,35
2016-02-14T11:29:01.918Z,30
2016-02-14T11:30:01.951Z,25
2016-02-14T11:31:02.141Z,20
2016-02-14T11:32:02.129Z,20
2016-02-14T11:33:02.193Z,20
2016-02-14T11:34:02.165Z,25
2016-02-14T11:35:02.215Z,25
2016-02-14T11:36:02.201Z,25
2016-02-14T11:37:02.236Z,25
2016-02-14T11:38:02.253Z,25
2016-02-14T11:39:02.288Z,35
2016-02-14T11:40:02.291Z,30
2016-02-14T11:41:02.325Z,25
2016-02-14T11:42:02.327Z,20
2016-02-14T11:43:02.345Z,20
2016-02-14T11:44:02.364Z,20
2016-02-14T11:45:02.382Z,30
2016-02-14T11:46:02.400Z,30
2016-02-14T11:47:02.435Z,40
2016-02-14T11:48:02.437Z,40
2016-02-14T11:49:02.503Z,35
2016-02-14T11:50:02.489Z,25
2016-02-14T11:51:02.508Z,25
2016-02-14T11:52:02.526Z,25
2016-02-14T11:53:02.543Z,20
2016-02-14T11:54:02.579Z,15
2016-02-14T11:55:02.581Z,20
2016-02-14T11:56:02.630Z,15
2016-02-14T11:57:02.618Z,10
2016-02-14T11:58:02.651Z,10
2016-02-14T11:59:02.670Z,10
2016-02-14T12:00:01.984Z,10
2016-02-14T12:01:02.706Z,10
2016-02-14T12:02:02.709Z,15
2016-02-14T12:03:02.758Z,15
2016-02-14T12:04:02.761Z,15
2016-02-14T12:05:02.795Z,15
2016-02-14T12:06:02.781Z,15
2016-02-14T12:07:02.831Z,15
2016-02-14T12:08:02.834Z,20
2016-02-14T12:09:02.884Z,15
2016-02-14T12:10:02.872Z,15
2016-02-14T12:11:02.936Z,15
2016-02-14T12:12:02.923Z,10
2016-02-14T12:13:02.926Z,5
2016-02-14T12:14:02.960Z,10
2016-02-14T12:15:02.978Z,10
2016-02-14T12:16:03.013Z,10
2016-02-14T12:17:03.015Z,10
2016-02-14T12:18:03.033Z,10
2016-02-14T12:19:03.066Z,10
2016-02-14T12:20:03.086Z,15
2016-02-14T12:21:03.104Z,10
2016-02-14T12:22:03.137Z,15
2016-02-14T12:23:03.157Z,20
2016-02-14T12:24:03.190Z,20
2016-02-14T12:25:03.193Z,20
2016-02-14T12:26:03.210Z,20
2016-02-14T12:27:03.230Z,20
2016-02-14T12:28:03.248Z,20
2016-02-14T12:29:03.265Z,20
2016-02-14T12:30:03.285Z,25
2016-02-14T12:31:03.146Z,25
2016-02-14T12:32:03.321Z,20
2016-02-14T12:33:03.370Z,25
2016-02-14T12:34:03.404Z,25
2016-02-14T12:35:03.376Z,25
2016-02-14T12:36:03.269Z,25
2016-02-14T12:37:03.444Z,25
2016-02-14T12:38:03.462Z,25
2016-02-14T12:39:03.465Z,25
2016-02-14T12:40:03.514Z,25
2016-02-14T12:41:03.517Z,25
2016-02-14T12:42:03.395Z,30
2016-02-14T12:43:03.553Z,30
2016-02-14T12:44:03.572Z,30
2016-02-14T12:45:03.606Z,25
2016-02-14T12:46:03.625Z,30
2016-02-14T12:47:03.658Z,30
2016-02-14T12:48:03.661Z,30
2016-02-14T12:49:03.538Z,25
2016-02-14T12:50:03.682Z,25
2016-02-14T12:51:03.732Z,25
2016-02-14T12:52:03.749Z,20
2016-02-14T12:53:03.769Z,25
2016-02-14T12:54:03.786Z,25
2016-02-14T12:55:03.789Z,25
2016-02-14T12:56:03.838Z,25
2016-02-14T12:57:03.841Z,25
2016-02-14T12:58:03.876Z,25
2016-02-14T12:59:03.893Z,20
2016-02-14T13:00:03.943Z,20
2016-02-14T13:01:03.929Z,20
2016-02-14T13:02:03.980Z,20
2016-02-14T13:03:03.967Z,20
2016-02-14T13:04:03.984Z,20
2016-02-14T13:05:04.020Z,15
2016-02-14T13:06:04.053Z,15
2016-02-14T13:07:04.040Z,15
2016-02-14T13:08:04.073Z,10
2016-02-14T13:09:04.093Z,10
2016-02-14T13:10:04.142Z,10
2016-02-14T13:11:04.144Z,10
2016-02-14T13:12:04.178Z,10
2016-02-14T13:13:04.166Z,5
2016-02-14T13:14:04.200Z,10
2016-02-14T13:15:04.217Z,10
2016-02-14T13:16:04.252Z,10
2016-02-14T13:17:04.270Z,10
2016-02-14T13:18:04.288Z,5
2016-02-14T13:19:04.322Z,5
2016-02-14T13:20:04.341Z,5
2016-02-14T13:21:04.359Z,5
2016-02-14T13:22:04.361Z,5
2016-02-14T13:23:04.380Z,5
2016-02-14T13:24:04.430Z,5
2016-02-14T13:25:04.416Z,0
2016-02-14T13:26:04.451Z,0
2016-02-14T13:27:04.485Z,0
2016-02-14T13:28:04.518Z,0
2016-02-14T13:29:04.505Z,0
2016-02-14T13:30:04.524Z,5
2016-02-14T13:31:04.557Z,5
2016-02-14T13:32:04.576Z,10
2016-02-14T13:33:04.626Z,10
2016-02-14T13:34:04.457Z,5
2016-02-14T13:35:04.631Z,5
2016-02-14T13:36:04.649Z,5
2016-02-14T13:37:04.683Z,5
2016-02-14T13:38:04.701Z,5
2016-02-14T13:39:04.720Z,5
2016-02-14T13:40:04.738Z,5
2016-02-14T13:41:04.757Z,10
2016-02-14T13:42:04.790Z,10
2016-02-14T13:43:04.809Z,5
2016-02-14T13:44:04.842Z,5
2016-02-14T13:45:04.861Z,5
2016-02-14T13:46:04.880Z,5
2016-02-14T13:47:04.897Z,10
2016-02-14T13:48:04.948Z,10
2016-02-14T13:49:04.918Z,10
2016-02-14T13:50:05.000Z,10
2016-02-14T13:51:04.971Z,10
2016-02-14T13:52:05.004Z,15
2016-02-14T13:53:05.024Z,20
2016-02-14T13:54:05.026Z,20
2016-02-14T13:55:05.044Z,25
2016-02-14T13:56:05.109Z,25
2016-02-14T13:57:05.113Z,20
2016-02-14T13:58:05.115Z,25
2016-02-14T13:59:05.132Z,20
2016-02-14T14:00:05.152Z,10
2016-02-14T14:01:05.201Z,10
2016-02-14T14:02:05.204Z,10
2016-02-14T14:03:05.221Z,10
2016-02-14T14:04:05.240Z,10
2016-02-14T14:05:05.295Z,5
2016-02-14T14:06:05.281Z,5
2016-02-14T14:07:05.284Z,5
2016-02-14T14:08:05.365Z,5
2016-02-14T14:09:05.368Z,5
2016-02-14T14:10:05.386Z,0
2016-02-14T14:11:05.389Z,0
2016-02-14T14:12:05.407Z,0
2016-02-14T14:13:05.425Z,0
2016-02-14T14:14:05.475Z,0
2016-02-14T14:15:05.478Z,0
2016-02-14T14:16:05.496Z,5
2016-02-14T14:17:05.358Z,5
2016-02-14T14:18:05.549Z,5
2016-02-14T14:19:05.566Z,5
2016-02-14T14:20:05.616Z,5
2016-02-14T14:21:05.604Z,5
2016-02-14T14:22:05.622Z,10
2016-02-14T14:23:05.655Z,10
2016-02-14T14:24:05.657Z,10
2016-02-14T14:25:05.708Z,5
2016-02-14T14:26:05.570Z,0
2016-02-14T14:27:05.729Z,0
2016-02-14T14:28:05.748Z,0
2016-02-14T14:29:05.765Z,0
2016-02-14T14:30:05.799Z,0
2016-02-14T14:31:05.801Z,0
2016-02-14T14:32:05.820Z,0
2016-02-14T14:33:05.682Z,0
2016-02-14T14:34:05.872Z,0
2016-02-14T14:35:05.750Z,0
2016-02-14T14:36:05.925Z,0